Aérodrome :
LOGIN :

S'inscrire | Disclaimer

   EN    FR    IT 

 










Légende :    VFR   VFR Marginal   IFR   IFR Intensif   IFR Très Intensif
Visi : 
Plafond : 
>= 8 km
>= 3000ft
5 à 8 km
1000 à 3000 ft
1500m à 5 km
500 à 1000 ft
800 à 1500m
200 à 500 ft
< 800m
< 200 ft
Symboles :   Orages  Brouillard  Fortes neiges  Fortes précipitations  Vent > 20 kt
SIGMETs :   Divers  Orages  Givrage  Turbulence  Onde Orograph.  Cendres Volcan.







- Altitude de l'aérodrome : 408 ft
- Code IATA : FKB


EDSB - Karlsruhe Baden Baden

DERNIER METAR :
  • 210150Z AUTO 23005KT 9999 // BKN068/// BKN080/// 19/18 Q1018

METARs EXPIRÉS :
  • 210120Z AUTO 21005KT 180V240 9999 // BKN065/// BKN074/// 19/18 Q1018
  • 210050Z AUTO 17010KT 9999 // FEW038/// BKN065/// BKN084/// 20/18 Q1017
  • 210020Z AUTO 15007KT 9999 // SCT023/// BKN068/// BKN098/// 20/19 Q1017
  • 202350Z AUTO 24004KT 220V280 9999 // FEW038/// BKN071/// OVC083/// 21/18 Q1017
  • 202320Z AUTO 20003KT 150V260 9999 // BKN075/// 21/17 Q1017

TAF TAF EDSB
Valide du 20 à 18h jusqu'au 21 à 18h UTC


201700Z 2018/2118 22008KT CAVOK
PROB30
TEMPO 2018/2020 25015G30KT TSRA SCT055CB
PROB40
TEMPO 2020/2102 26020G35KT TSRA BKN040CB
BECMG 2111/2113 28005KT
Pas de NOTAMs connus pour ce terrain.
1 SIGMET publié pour la FIR Langen (EDGG) :
 
Orages noyés dans la masse
EDGG SIGMET T01 VALID 210039/210300 EDZF
EDGG LANGEN FIR EMBD TS OBS WI N4945 E01054 - N4924 E01059 - N4838 E00939 - N4809 E00936 - N4736 E00743 - N4818 E00745 - N4859 E00818 - N4953 E00941 - N4945 E01054 TOP FL380 NC FCST AT 0300Z WI N4842 E00823 - N5011 E01143 - N4854 E01314 - N4808 E01040 - N4743 E00835 - N4842 E00823=



MET'MAP, la Météo Aéronautique d'un coup d'oeil ! - Copyright ORBIFLY Décembre 2007 - Disclaimer

ORBIFLY MET'MAP TEAM :

Programmation & Développement : Alexandra Zaïnal
Conception & Développement : Baudouin d'Aumeries
Co-Programmation & Développement : Marc-Olivier Méhu
Soutien technique & logistique : Manuel Goepfert

Contact : metmap@orbifly.com




SOURCES & CREDITS :

   NOAA